sensor_id;sensor_type;location;lat;lon;timestamp;pressure;altitude;pressure_sealevel;temperature;humidity
10881;BME280;5493;48.884;8.338;2022-09-12T00:00:14;100326.72;;;16.83;100.00
10881;BME280;5493;48.884;8.338;2022-09-12T00:02:41;100330.91;;;16.63;100.00
10881;BME280;5493;48.884;8.338;2022-09-12T00:05:07;100329.25;;;16.89;100.00
10881;BME280;5493;48.884;8.338;2022-09-12T00:07:34;100324.94;;;16.98;100.00
10881;BME280;5493;48.884;8.338;2022-09-12T00:10:00;100318.44;;;16.99;100.00
10881;BME280;5493;48.884;8.338;2022-09-12T00:12:27;100315.28;;;16.86;100.00
10881;BME280;5493;48.884;8.338;2022-09-12T00:14:53;100322.38;;;16.87;100.00
10881;BME280;5493;48.884;8.338;2022-09-12T00:17:21;100326.38;;;16.74;100.00
10881;BME280;5493;48.884;8.338;2022-09-12T00:19:47;100327.69;;;16.66;100.00
10881;BME280;5493;48.884;8.338;2022-09-12T00:22:14;100319.44;;;16.88;100.00
10881;BME280;5493;48.884;8.338;2022-09-12T00:24:40;100322.91;;;16.84;100.00
10881;BME280;5493;48.884;8.338;2022-09-12T00:27:07;100320.56;;;16.92;100.00
10881;BME280;5493;48.884;8.338;2022-09-12T00:29:33;100321.38;;;16.93;100.00
10881;BME280;5493;48.884;8.338;2022-09-12T00:32:00;100311.19;;;16.78;100.00
10881;BME280;5493;48.884;8.338;2022-09-12T00:34:28;100310.31;;;16.46;100.00
10881;BME280;5493;48.884;8.338;2022-09-12T00:36:55;100318.31;;;16.57;100.00
10881;BME280;5493;48.884;8.338;2022-09-12T00:39:21;100312.94;;;16.62;100.00
10881;BME280;5493;48.884;8.338;2022-09-12T00:41:48;100308.53;;;16.56;100.00
10881;BME280;5493;48.884;8.338;2022-09-12T00:47:26;100304.88;;;16.46;100.00
10881;BME280;5493;48.884;8.338;2022-09-12T00:49:59;100302.31;;;16.39;100.00
10881;BME280;5493;48.884;8.338;2022-09-12T00:52:32;100294.28;;;16.49;100.00
10881;BME280;5493;48.884;8.338;2022-09-12T00:55:05;100294.81;;;16.51;100.00
10881;BME280;5493;48.884;8.338;2022-09-12T00:57:36;100289.50;;;16.61;100.00
10881;BME280;5493;48.884;8.338;2022-09-12T01:00:07;100294.31;;;16.54;100.00
10881;BME280;5493;48.884;8.338;2022-09-12T01:02:37;100286.53;;;16.63;100.00
10881;BME280;5493;48.884;8.338;2022-09-12T01:05:07;100296.53;;;16.57;100.00
10881;BME280;5493;48.884;8.338;2022-09-12T01:07:34;100291.28;;;16.51;100.00
10881;BME280;5493;48.884;8.338;2022-09-12T01:10:02;100285.22;;;16.44;100.00
10881;BME280;5493;48.884;8.338;2022-09-12T01:12:29;100298.53;;;16.40;100.00
10881;BME280;5493;48.884;8.338;2022-09-12T01:14:57;100286.13;;;16.22;100.00
10881;BME280;5493;48.884;8.338;2022-09-12T01:17:26;100291.63;;;16.28;100.00
10881;BME280;5493;48.884;8.338;2022-09-12T01:20:23;100286.78;;;16.35;100.00
10881;BME280;5493;48.884;8.338;2022-09-12T01:23:14;100278.47;;;16.19;100.00
10881;BME280;5493;48.884;8.338;2022-09-12T01:26:01;100288.31;;;15.99;100.00
10881;BME280;5493;48.884;8.338;2022-09-12T01:28:42;100284.50;;;16.00;100.00
10881;BME280;5493;48.884;8.338;2022-09-12T01:31:19;100274.06;;;15.92;100.00
10881;BME280;5493;48.884;8.338;2022-09-12T01:33:57;100286.25;;;15.84;100.00
10881;BME280;5493;48.884;8.338;2022-09-12T01:36:35;100282.38;;;15.80;100.00
10881;BME280;5493;48.884;8.338;2022-09-12T01:39:04;100279.13;;;16.05;100.00
10881;BME280;5493;48.884;8.338;2022-09-12T01:41:41;100281.25;;;15.76;100.00
10881;BME280;5493;48.884;8.338;2022-09-12T01:44:13;100280.03;;;15.67;100.00
10881;BME280;5493;48.884;8.338;2022-09-12T01:47:05;100262.47;;;15.53;100.00
10881;BME280;5493;48.884;8.338;2022-09-12T01:49:38;100270.47;;;15.86;100.00
10881;BME280;5493;48.884;8.338;2022-09-12T01:52:10;100269.47;;;15.70;100.00
10881;BME280;5493;48.884;8.338;2022-09-12T01:54:44;100272.19;;;15.70;100.00
10881;BME280;5493;48.884;8.338;2022-09-12T01:57:15;100260.63;;;15.80;100.00
10881;BME280;5493;48.884;8.338;2022-09-12T01:59:47;100259.06;;;15.84;100.00
10881;BME280;5493;48.884;8.338;2022-09-12T02:02:20;100262.72;;;15.73;100.00
10881;BME280;5493;48.884;8.338;2022-09-12T02:04:51;100253.78;;;15.77;100.00
10881;BME280;5493;48.884;8.338;2022-09-12T02:07:24;100250.75;;;15.74;100.00
10881;BME280;5493;48.884;8.338;2022-09-12T02:09:54;100249.63;;;15.70;100.00
10881;BME280;5493;48.884;8.338;2022-09-12T02:12:25;100248.50;;;15.88;100.00
10881;BME280;5493;48.884;8.338;2022-09-12T02:14:56;100237.41;;;15.94;100.00
10881;BME280;5493;48.884;8.338;2022-09-12T02:17:28;100242.75;;;15.84;100.00
10881;BME280;5493;48.884;8.338;2022-09-12T02:19:59;100239.31;;;15.94;100.00
10881;BME280;5493;48.884;8.338;2022-09-12T02:22:28;100242.25;;;15.92;100.00
10881;BME280;5493;48.884;8.338;2022-09-12T02:24:59;100235.69;;;15.88;100.00
10881;BME280;5493;48.884;8.338;2022-09-12T02:27:29;100241.09;;;15.83;100.00
10881;BME280;5493;48.884;8.338;2022-09-12T02:29:57;100246.97;;;15.75;100.00
10881;BME280;5493;48.884;8.338;2022-09-12T02:32:30;100236.06;;;15.97;100.00
10881;BME280;5493;48.884;8.338;2022-09-12T02:35:04;100242.84;;;15.94;100.00
10881;BME280;5493;48.884;8.338;2022-09-12T02:37:44;100247.06;;;15.85;100.00
10881;BME280;5493;48.884;8.338;2022-09-12T02:40:15;100244.97;;;15.92;100.00
10881;BME280;5493;48.884;8.338;2022-09-12T02:42:41;100245.50;;;15.89;100.00
10881;BME280;5493;48.884;8.338;2022-09-12T02:45:09;100246.97;;;15.75;100.00
10881;BME280;5493;48.884;8.338;2022-09-12T02:47:41;100243.44;;;15.53;100.00
10881;BME280;5493;48.884;8.338;2022-09-12T02:50:09;100238.63;;;15.60;100.00
10881;BME280;5493;48.884;8.338;2022-09-12T02:52:35;100243.59;;;15.46;100.00
10881;BME280;5493;48.884;8.338;2022-09-12T02:55:03;100235.84;;;15.33;100.00
10881;BME280;5493;48.884;8.338;2022-09-12T02:57:31;100244.13;;;15.26;100.00
10881;BME280;5493;48.884;8.338;2022-09-12T02:59:59;100233.34;;;15.32;100.00
10881;BME280;5493;48.884;8.338;2022-09-12T03:02:38;100235.50;;;15.30;100.00
10881;BME280;5493;48.884;8.338;2022-09-12T03:05:20;100234.47;;;15.14;100.00
10881;BME280;5493;48.884;8.338;2022-09-12T03:08:13;100234.59;;;15.24;100.00
10881;BME280;5493;48.884;8.338;2022-09-12T03:11:02;100235.03;;;15.16;100.00
10881;BME280;5493;48.884;8.338;2022-09-12T03:13:41;100234.91;;;15.06;100.00
10881;BME280;5493;48.884;8.338;2022-09-12T03:16:16;100231.69;;;15.09;100.00
10881;BME280;5493;48.884;8.338;2022-09-12T03:18:51;100233.09;;;15.11;100.00
10881;BME280;5493;48.884;8.338;2022-09-12T03:21:27;100230.16;;;14.79;100.00
10881;BME280;5493;48.884;8.338;2022-09-12T03:24:04;100233.56;;;14.87;100.00
10881;BME280;5493;48.884;8.338;2022-09-12T03:26:38;100234.78;;;14.79;100.00
10881;BME280;5493;48.884;8.338;2022-09-12T03:29:06;100242.34;;;14.94;100.00
10881;BME280;5493;48.884;8.338;2022-09-12T03:31:33;100241.50;;;14.76;100.00
10881;BME280;5493;48.884;8.338;2022-09-12T03:34:00;100244.81;;;14.78;100.00
10881;BME280;5493;48.884;8.338;2022-09-12T03:36:29;100242.66;;;14.81;100.00
10881;BME280;5493;48.884;8.338;2022-09-12T03:38:55;100253.47;;;14.75;100.00
10881;BME280;5493;48.884;8.338;2022-09-12T03:41:22;100248.84;;;14.76;100.00
10881;BME280;5493;48.884;8.338;2022-09-12T03:43:48;100239.78;;;14.87;100.00
10881;BME280;5493;48.884;8.338;2022-09-12T03:46:15;100245.00;;;14.72;100.00
10881;BME280;5493;48.884;8.338;2022-09-12T03:48:41;100243.84;;;14.68;100.00
10881;BME280;5493;48.884;8.338;2022-09-12T03:51:09;100239.00;;;14.53;100.00
10881;BME280;5493;48.884;8.338;2022-09-12T03:53:37;100252.56;;;14.53;100.00
10881;BME280;5493;48.884;8.338;2022-09-12T03:56:08;100242.34;;;14.60;100.00
10881;BME280;5493;48.884;8.338;2022-09-12T03:58:35;100250.47;;;14.44;100.00
10881;BME280;5493;48.884;8.338;2022-09-12T04:01:06;100243.16;;;14.44;100.00
10881;BME280;5493;48.884;8.338;2022-09-12T04:03:36;100235.69;;;14.51;100.00
10881;BME280;5493;48.884;8.338;2022-09-12T04:06:03;100230.09;;;14.41;100.00
10881;BME280;5493;48.884;8.338;2022-09-12T04:08:30;100232.75;;;14.53;100.00
10881;BME280;5493;48.884;8.338;2022-09-12T04:11:03;100226.31;;;14.59;100.00
10881;BME280;5493;48.884;8.338;2022-09-12T04:13:30;100231.97;;;14.41;100.00
10881;BME280;5493;48.884;8.338;2022-09-12T04:15:57;100230.44;;;14.45;100.00
10881;BME280;5493;48.884;8.338;2022-09-12T04:18:24;100228.78;;;14.44;100.00
10881;BME280;5493;48.884;8.338;2022-09-12T04:20:50;100222.22;;;14.40;100.00
10881;BME280;5493;48.884;8.338;2022-09-12T04:23:17;100221.63;;;14.38;100.00
10881;BME280;5493;48.884;8.338;2022-09-12T04:25:44;100224.72;;;14.29;100.00
10881;BME280;5493;48.884;8.338;2022-09-12T04:28:11;100228.63;;;14.22;100.00
10881;BME280;5493;48.884;8.338;2022-09-12T04:30:38;100228.97;;;14.25;100.00
10881;BME280;5493;48.884;8.338;2022-09-12T04:33:04;100225.19;;;14.26;100.00
10881;BME280;5493;48.884;8.338;2022-09-12T04:35:33;100224.84;;;14.35;100.00
10881;BME280;5493;48.884;8.338;2022-09-12T04:38:00;100219.53;;;14.28;100.00
10881;BME280;5493;48.884;8.338;2022-09-12T04:40:28;100220.50;;;14.22;100.00
10881;BME280;5493;48.884;8.338;2022-09-12T04:42:54;100217.56;;;14.23;100.00
10881;BME280;5493;48.884;8.338;2022-09-12T04:45:22;100219.72;;;14.21;100.00
10881;BME280;5493;48.884;8.338;2022-09-12T04:47:49;100222.88;;;14.18;100.00
10881;BME280;5493;48.884;8.338;2022-09-12T04:50:15;100214.41;;;14.43;100.00
10881;BME280;5493;48.884;8.338;2022-09-12T04:52:42;100210.44;;;14.34;100.00
10881;BME280;5493;48.884;8.338;2022-09-12T04:55:09;100213.41;;;14.49;100.00
10881;BME280;5493;48.884;8.338;2022-09-12T04:57:35;100218.34;;;14.52;100.00
10881;BME280;5493;48.884;8.338;2022-09-12T05:00:03;100214.00;;;14.68;100.00
10881;BME280;5493;48.884;8.338;2022-09-12T05:02:33;100220.56;;;14.72;100.00
10881;BME280;5493;48.884;8.338;2022-09-12T05:05:00;100219.25;;;14.74;100.00
10881;BME280;5493;48.884;8.338;2022-09-12T05:07:26;100228.44;;;14.73;100.00
10881;BME280;5493;48.884;8.338;2022-09-12T05:09:53;100233.22;;;14.66;100.00
10881;BME280;5493;48.884;8.338;2022-09-12T05:12:20;100232.41;;;14.66;100.00
10881;BME280;5493;48.884;8.338;2022-09-12T05:14:46;100238.41;;;14.68;100.00
10881;BME280;5493;48.884;8.338;2022-09-12T05:17:13;100245.47;;;14.69;100.00
10881;BME280;5493;48.884;8.338;2022-09-12T05:19:41;100239.16;;;14.63;100.00
10881;BME280;5493;48.884;8.338;2022-09-12T05:22:07;100240.16;;;14.57;100.00
10881;BME280;5493;48.884;8.338;2022-09-12T05:24:34;100251.56;;;14.43;100.00
10881;BME280;5493;48.884;8.338;2022-09-12T05:27:02;100252.13;;;14.45;100.00
10881;BME280;5493;48.884;8.338;2022-09-12T05:29:29;100243.50;;;14.48;100.00
10881;BME280;5493;48.884;8.338;2022-09-12T05:31:55;100240.06;;;14.52;100.00
10881;BME280;5493;48.884;8.338;2022-09-12T05:34:22;100251.63;;;14.48;100.00
10881;BME280;5493;48.884;8.338;2022-09-12T05:36:49;100247.97;;;14.54;100.00
10881;BME280;5493;48.884;8.338;2022-09-12T05:39:16;100243.66;;;14.58;100.00
10881;BME280;5493;48.884;8.338;2022-09-12T05:41:42;100243.75;;;14.46;100.00
10881;BME280;5493;48.884;8.338;2022-09-12T05:44:10;100241.28;;;14.45;100.00
10881;BME280;5493;48.884;8.338;2022-09-12T05:46:39;100244.97;;;14.55;100.00
10881;BME280;5493;48.884;8.338;2022-09-12T05:49:08;100244.41;;;14.53;100.00
10881;BME280;5493;48.884;8.338;2022-09-12T05:51:36;100247.38;;;14.52;100.00
10881;BME280;5493;48.884;8.338;2022-09-12T05:54:06;100249.84;;;14.70;100.00
10881;BME280;5493;48.884;8.338;2022-09-12T05:56:37;100250.34;;;14.67;100.00
10881;BME280;5493;48.884;8.338;2022-09-12T05:59:05;100240.28;;;14.84;100.00
10881;BME280;5493;48.884;8.338;2022-09-12T06:01:33;100249.28;;;14.68;100.00
10881;BME280;5493;48.884;8.338;2022-09-12T06:04:03;100245.78;;;14.72;100.00
10881;BME280;5493;48.884;8.338;2022-09-12T06:06:31;100251.78;;;14.58;100.00
10881;BME280;5493;48.884;8.338;2022-09-12T06:09:02;100253.94;;;14.56;100.00
10881;BME280;5493;48.884;8.338;2022-09-12T06:11:32;100257.38;;;14.85;100.00
10881;BME280;5493;48.884;8.338;2022-09-12T06:13:59;100252.09;;;15.11;100.00
10881;BME280;5493;48.884;8.338;2022-09-12T06:16:27;100256.88;;;15.04;100.00
10881;BME280;5493;48.884;8.338;2022-09-12T06:18:55;100258.91;;;15.14;100.00
10881;BME280;5493;48.884;8.338;2022-09-12T06:21:24;100255.06;;;15.10;100.00
10881;BME280;5493;48.884;8.338;2022-09-12T06:23:52;100255.19;;;15.20;100.00
10881;BME280;5493;48.884;8.338;2022-09-12T06:26:20;100249.84;;;15.47;100.00
10881;BME280;5493;48.884;8.338;2022-09-12T06:28:50;100249.38;;;15.50;100.00
10881;BME280;5493;48.884;8.338;2022-09-12T06:31:18;100251.03;;;15.51;100.00
10881;BME280;5493;48.884;8.338;2022-09-12T06:33:48;100244.00;;;15.77;100.00
10881;BME280;5493;48.884;8.338;2022-09-12T06:36:17;100243.69;;;15.73;100.00
10881;BME280;5493;48.884;8.338;2022-09-12T06:38:44;100247.88;;;15.81;100.00
10881;BME280;5493;48.884;8.338;2022-09-12T06:41:11;100242.81;;;16.16;100.00
10881;BME280;5493;48.884;8.338;2022-09-12T06:43:38;100241.44;;;16.18;100.00
10881;BME280;5493;48.884;8.338;2022-09-12T06:46:07;100240.41;;;16.24;100.00
10881;BME280;5493;48.884;8.338;2022-09-12T06:48:33;100235.28;;;16.28;100.00
10881;BME280;5493;48.884;8.338;2022-09-12T06:51:01;100237.81;;;16.35;100.00
10881;BME280;5493;48.884;8.338;2022-09-12T06:53:30;100241.63;;;16.39;100.00
10881;BME280;5493;48.884;8.338;2022-09-12T06:55:58;100240.47;;;16.30;100.00
10881;BME280;5493;48.884;8.338;2022-09-12T06:58:25;100241.59;;;16.34;100.00
10881;BME280;5493;48.884;8.338;2022-09-12T07:00:57;100239.31;;;16.84;100.00
10881;BME280;5493;48.884;8.338;2022-09-12T07:03:27;100246.38;;;16.80;100.00
10881;BME280;5493;48.884;8.338;2022-09-12T07:05:54;100240.03;;;17.06;100.00
10881;BME280;5493;48.884;8.338;2022-09-12T07:08:21;100241.44;;;17.14;100.00
10881;BME280;5493;48.884;8.338;2022-09-12T07:10:47;100239.38;;;17.41;100.00
10881;BME280;5493;48.884;8.338;2022-09-12T07:13:14;100236.16;;;17.49;100.00
10881;BME280;5493;48.884;8.338;2022-09-12T07:15:40;100240.53;;;17.50;100.00
10881;BME280;5493;48.884;8.338;2022-09-12T07:18:08;100235.97;;;17.61;100.00
10881;BME280;5493;48.884;8.338;2022-09-12T07:20:37;100246.34;;;17.69;100.00
10881;BME280;5493;48.884;8.338;2022-09-12T07:23:04;100240.31;;;17.62;100.00
10881;BME280;5493;48.884;8.338;2022-09-12T07:25:30;100242.41;;;17.45;100.00
10881;BME280;5493;48.884;8.338;2022-09-12T07:27:56;100239.31;;;17.88;100.00
10881;BME280;5493;48.884;8.338;2022-09-12T07:30:23;100239.06;;;17.95;100.00
10881;BME280;5493;48.884;8.338;2022-09-12T07:32:51;100229.53;;;17.97;100.00
10881;BME280;5493;48.884;8.338;2022-09-12T07:35:18;100227.88;;;17.96;100.00
10881;BME280;5493;48.884;8.338;2022-09-12T07:37:46;100226.03;;;18.12;100.00
10881;BME280;5493;48.884;8.338;2022-09-12T07:40:13;100226.31;;;18.26;100.00
10881;BME280;5493;48.884;8.338;2022-09-12T07:42:39;100224.59;;;17.89;100.00
10881;BME280;5493;48.884;8.338;2022-09-12T07:45:06;100231.47;;;18.12;100.00
10881;BME280;5493;48.884;8.338;2022-09-12T07:47:33;100243.50;;;18.36;100.00
10881;BME280;5493;48.884;8.338;2022-09-12T07:50:00;100232.31;;;18.43;100.00
10881;BME280;5493;48.884;8.338;2022-09-12T07:52:26;100238.34;;;18.45;100.00
10881;BME280;5493;48.884;8.338;2022-09-12T07:54:54;100244.34;;;18.47;100.00
10881;BME280;5493;48.884;8.338;2022-09-12T07:57:20;100243.28;;;18.68;100.00
10881;BME280;5493;48.884;8.338;2022-09-12T07:59:47;100239.16;;;18.91;100.00
10881;BME280;5493;48.884;8.338;2022-09-12T08:02:13;100233.97;;;18.79;100.00
10881;BME280;5493;48.884;8.338;2022-09-12T08:04:40;100238.56;;;19.24;100.00
10881;BME280;5493;48.884;8.338;2022-09-12T08:07:07;100239.44;;;18.84;100.00
10881;BME280;5493;48.884;8.338;2022-09-12T08:09:34;100234.47;;;19.16;100.00
10881;BME280;5493;48.884;8.338;2022-09-12T08:12:02;100233.59;;;19.41;100.00
10881;BME280;5493;48.884;8.338;2022-09-12T08:14:29;100239.59;;;19.33;100.00
10881;BME280;5493;48.884;8.338;2022-09-12T08:16:55;100244.84;;;19.20;100.00
10881;BME280;5493;48.884;8.338;2022-09-12T08:19:22;100240.69;;;19.47;100.00
10881;BME280;5493;48.884;8.338;2022-09-12T08:21:48;100229.75;;;19.37;100.00
10881;BME280;5493;48.884;8.338;2022-09-12T08:24:15;100231.38;;;19.48;100.00
10881;BME280;5493;48.884;8.338;2022-09-12T08:26:41;100231.91;;;19.50;100.00
10881;BME280;5493;48.884;8.338;2022-09-12T08:29:10;100230.09;;;19.21;100.00
10881;BME280;5493;48.884;8.338;2022-09-12T08:31:36;100224.78;;;19.54;100.00
10881;BME280;5493;48.884;8.338;2022-09-12T08:34:05;100226.44;;;20.04;100.00
10881;BME280;5493;48.884;8.338;2022-09-12T08:36:33;100223.84;;;19.79;100.00
10881;BME280;5493;48.884;8.338;2022-09-12T08:39:01;100219.50;;;19.78;100.00
10881;BME280;5493;48.884;8.338;2022-09-12T08:41:29;100227.94;;;20.31;100.00
10881;BME280;5493;48.884;8.338;2022-09-12T08:44:13;100229.22;;;19.99;100.00
10881;BME280;5493;48.884;8.338;2022-09-12T08:46:50;100225.03;;;20.12;100.00
10881;BME280;5493;48.884;8.338;2022-09-12T08:49:27;100225.09;;;19.97;100.00
10881;BME280;5493;48.884;8.338;2022-09-12T08:51:56;100222.75;;;20.29;100.00
10881;BME280;5493;48.884;8.338;2022-09-12T08:54:27;100221.16;;;20.18;100.00
10881;BME280;5493;48.884;8.338;2022-09-12T08:56:58;100222.09;;;20.76;100.00
10881;BME280;5493;48.884;8.338;2022-09-12T08:59:31;100216.13;;;20.98;100.00
10881;BME280;5493;48.884;8.338;2022-09-12T09:02:01;100214.88;;;20.85;100.00
10881;BME280;5493;48.884;8.338;2022-09-12T09:04:36;100213.66;;;21.25;100.00
10881;BME280;5493;48.884;8.338;2022-09-12T09:07:20;100208.88;;;21.12;100.00
10881;BME280;5493;48.884;8.338;2022-09-12T09:10:02;100212.66;;;21.40;100.00
10881;BME280;5493;48.884;8.338;2022-09-12T09:12:40;100211.28;;;21.61;100.00
10881;BME280;5493;48.884;8.338;2022-09-12T09:15:22;100204.50;;;21.77;100.00
10881;BME280;5493;48.884;8.338;2022-09-12T09:18:00;100202.63;;;21.73;100.00
10881;BME280;5493;48.884;8.338;2022-09-12T09:20:31;100201.38;;;22.40;100.00
10881;BME280;5493;48.884;8.338;2022-09-12T09:23:04;100202.47;;;22.90;100.00
10881;BME280;5493;48.884;8.338;2022-09-12T09:25:42;100203.66;;;23.57;100.00
10881;BME280;5493;48.884;8.338;2022-09-12T09:28:14;100198.91;;;24.34;100.00
10881;BME280;5493;48.884;8.338;2022-09-12T09:30:44;100186.47;;;25.38;100.00
10881;BME280;5493;48.884;8.338;2022-09-12T09:33:18;100191.34;;;26.49;100.00
10881;BME280;5493;48.884;8.338;2022-09-12T09:35:49;100190.84;;;25.95;100.00
10881;BME280;5493;48.884;8.338;2022-09-12T09:38:23;100194.97;;;27.05;100.00
10881;BME280;5493;48.884;8.338;2022-09-12T09:43:36;100191.31;;;28.30;100.00
10881;BME280;5493;48.884;8.338;2022-09-12T09:46:04;100186.06;;;28.49;100.00
10881;BME280;5493;48.884;8.338;2022-09-12T09:48:32;100182.13;;;28.71;100.00
10881;BME280;5493;48.884;8.338;2022-09-12T09:51:02;100184.84;;;27.76;100.00
10881;BME280;5493;48.884;8.338;2022-09-12T09:53:36;100185.97;;;27.16;100.00
10881;BME280;5493;48.884;8.338;2022-09-12T09:56:09;100178.00;;;28.56;100.00
10881;BME280;5493;48.884;8.338;2022-09-12T09:58:38;100182.69;;;28.44;100.00
10881;BME280;5493;48.884;8.338;2022-09-12T10:01:11;100180.03;;;28.14;100.00
10881;BME280;5493;48.884;8.338;2022-09-12T10:03:39;100175.09;;;28.20;100.00
10881;BME280;5493;48.884;8.338;2022-09-12T10:06:22;100171.84;;;27.47;100.00
10881;BME280;5493;48.884;8.338;2022-09-12T10:08:50;100175.88;;;26.57;100.00
10881;BME280;5493;48.884;8.338;2022-09-12T10:11:19;100170.63;;;27.57;100.00
10881;BME280;5493;48.884;8.338;2022-09-12T10:13:52;100173.44;;;28.40;100.00
10881;BME280;5493;48.884;8.338;2022-09-12T10:16:24;100172.00;;;28.66;100.00
10881;BME280;5493;48.884;8.338;2022-09-12T10:18:53;100158.84;;;28.30;100.00
10881;BME280;5493;48.884;8.338;2022-09-12T10:21:24;100163.19;;;27.78;100.00
10881;BME280;5493;48.884;8.338;2022-09-12T10:23:59;100166.97;;;28.68;100.00
10881;BME280;5493;48.884;8.338;2022-09-12T10:26:31;100162.63;;;28.92;100.00
10881;BME280;5493;48.884;8.338;2022-09-12T10:29:03;100156.97;;;29.24;100.00
10881;BME280;5493;48.884;8.338;2022-09-12T10:31:39;100151.47;;;28.67;100.00
10881;BME280;5493;48.884;8.338;2022-09-12T10:34:18;100152.22;;;28.02;100.00
10881;BME280;5493;48.884;8.338;2022-09-12T10:36:47;100148.16;;;28.86;100.00
10881;BME280;5493;48.884;8.338;2022-09-12T10:39:17;100141.94;;;29.50;100.00
10881;BME280;5493;48.884;8.338;2022-09-12T10:41:44;100133.19;;;30.27;100.00
10881;BME280;5493;48.884;8.338;2022-09-12T10:44:15;100135.69;;;30.33;100.00
10881;BME280;5493;48.884;8.338;2022-09-12T10:46:43;100127.72;;;31.21;100.00
10881;BME280;5493;48.884;8.338;2022-09-12T10:49:22;100127.66;;;31.02;100.00
10881;BME280;5493;48.884;8.338;2022-09-12T10:51:51;100126.63;;;31.26;98.27
10881;BME280;5493;48.884;8.338;2022-09-12T10:54:20;100121.69;;;30.29;100.00
10881;BME280;5493;48.884;8.338;2022-09-12T10:57:07;100116.22;;;30.33;100.00
10881;BME280;5493;48.884;8.338;2022-09-12T10:59:49;100111.97;;;29.55;100.00
10881;BME280;5493;48.884;8.338;2022-09-12T11:02:27;100123.19;;;29.22;100.00
10881;BME280;5493;48.884;8.338;2022-09-12T11:05:00;100115.13;;;30.49;99.95
10881;BME280;5493;48.884;8.338;2022-09-12T11:07:37;100101.53;;;31.96;94.55
10881;BME280;5493;48.884;8.338;2022-09-12T11:10:16;100102.91;;;31.67;95.28
10881;BME280;5493;48.884;8.338;2022-09-12T11:12:50;100095.75;;;32.65;92.94
10881;BME280;5493;48.884;8.338;2022-09-12T11:15:35;100094.63;;;33.42;88.71
10881;BME280;5493;48.884;8.338;2022-09-12T11:18:14;100095.63;;;31.62;93.66
10881;BME280;5493;48.884;8.338;2022-09-12T11:20:54;100099.97;;;31.09;95.98
10881;BME280;5493;48.884;8.338;2022-09-12T11:23:38;100095.53;;;31.40;91.88
10881;BME280;5493;48.884;8.338;2022-09-12T11:26:19;100097.19;;;32.37;89.52
10881;BME280;5493;48.884;8.338;2022-09-12T11:28:55;100094.56;;;30.85;94.96
10881;BME280;5493;48.884;8.338;2022-09-12T11:31:51;100088.81;;;30.19;91.04
10881;BME280;5493;48.884;8.338;2022-09-12T11:34:29;100091.63;;;30.35;93.60
10881;BME280;5493;48.884;8.338;2022-09-12T11:37:14;100094.03;;;30.36;90.73
10881;BME280;5493;48.884;8.338;2022-09-12T11:39:45;100078.78;;;30.30;90.31
10881;BME280;5493;48.884;8.338;2022-09-12T11:42:17;100079.13;;;31.03;93.00
10881;BME280;5493;48.884;8.338;2022-09-12T11:44:47;100082.00;;;30.16;92.84
10881;BME280;5493;48.884;8.338;2022-09-12T11:47:18;100071.56;;;30.57;91.16
10881;BME280;5493;48.884;8.338;2022-09-12T11:49:48;100077.44;;;30.24;90.47
10881;BME280;5493;48.884;8.338;2022-09-12T11:52:17;100063.56;;;31.53;87.33
10881;BME280;5493;48.884;8.338;2022-09-12T11:54:48;100061.00;;;32.02;84.85
10881;BME280;5493;48.884;8.338;2022-09-12T11:57:19;100049.66;;;31.02;85.74
10881;BME280;5493;48.884;8.338;2022-09-12T11:59:52;100047.38;;;30.29;91.06
10881;BME280;5493;48.884;8.338;2022-09-12T12:02:24;100044.94;;;30.28;91.00
10881;BME280;5493;48.884;8.338;2022-09-12T12:05:02;100041.88;;;31.27;92.20
10881;BME280;5493;48.884;8.338;2022-09-12T12:07:37;100035.03;;;30.58;88.85
10881;BME280;5493;48.884;8.338;2022-09-12T12:10:06;100041.25;;;30.67;92.76
10881;BME280;5493;48.884;8.338;2022-09-12T12:12:47;100041.53;;;30.19;87.16
10881;BME280;5493;48.884;8.338;2022-09-12T12:15:15;100043.56;;;30.06;90.89
10881;BME280;5493;48.884;8.338;2022-09-12T12:17:43;100031.94;;;30.32;88.97
10881;BME280;5493;48.884;8.338;2022-09-12T12:20:15;100039.53;;;30.63;87.23
10881;BME280;5493;48.884;8.338;2022-09-12T12:22:50;100035.63;;;30.83;85.91
10881;BME280;5493;48.884;8.338;2022-09-12T12:25:24;100034.47;;;31.35;83.74
10881;BME280;5493;48.884;8.338;2022-09-12T12:27:53;100027.38;;;31.02;82.63
10881;BME280;5493;48.884;8.338;2022-09-12T12:33:50;100030.16;;;31.95;79.95
10881;BME280;5493;48.884;8.338;2022-09-12T12:36:39;100027.00;;;31.54;83.82
10881;BME280;5493;48.884;8.338;2022-09-12T12:42:09;100025.22;;;30.96;86.27
10881;BME280;5493;48.884;8.338;2022-09-12T12:44:49;100012.28;;;30.41;83.99
10881;BME280;5493;48.884;8.338;2022-09-12T12:47:18;100005.88;;;30.24;84.53
10881;BME280;5493;48.884;8.338;2022-09-12T12:49:50;100009.25;;;30.77;86.67
10881;BME280;5493;48.884;8.338;2022-09-12T12:52:19;100005.97;;;30.91;86.37
10881;BME280;5493;48.884;8.338;2022-09-12T12:54:55;100006.34;;;29.83;85.36
10881;BME280;5493;48.884;8.338;2022-09-12T12:57:27;100005.19;;;30.27;85.55
10881;BME280;5493;48.884;8.338;2022-09-12T12:59:58;100006.03;;;31.45;79.88
10881;BME280;5493;48.884;8.338;2022-09-12T13:02:30;100005.19;;;31.79;80.83
10881;BME280;5493;48.884;8.338;2022-09-12T13:04:58;100010.22;;;31.35;81.62
10881;BME280;5493;48.884;8.338;2022-09-12T13:07:30;100001.47;;;32.13;79.59
10881;BME280;5493;48.884;8.338;2022-09-12T13:09:59;99994.78;;;31.76;83.15
10881;BME280;5493;48.884;8.338;2022-09-12T13:12:28;99990.75;;;31.96;79.63
10881;BME280;5493;48.884;8.338;2022-09-12T13:14:57;99989.75;;;32.27;79.95
10881;BME280;5493;48.884;8.338;2022-09-12T13:17:28;99983.75;;;32.25;78.36
10881;BME280;5493;48.884;8.338;2022-09-12T13:20:03;99982.06;;;32.43;77.71
10881;BME280;5493;48.884;8.338;2022-09-12T13:22:41;99981.88;;;32.55;76.38